createdAt,value
2018-01-22T00:00:41.124Z,94079.32
2018-01-22T00:03:10.017Z,94087.99
2018-01-22T00:05:38.086Z,94085.87
2018-01-22T00:08:06.163Z,94088.24
2018-01-22T00:10:34.104Z,94084.00
2018-01-22T00:13:02.088Z,94076.53
2018-01-22T00:15:30.171Z,94081.33
2018-01-22T00:17:58.242Z,94079.63
2018-01-22T00:20:26.894Z,94086.31
2018-01-22T00:22:55.339Z,94075.70
2018-01-22T00:25:23.471Z,94063.98
2018-01-22T00:27:51.560Z,94048.85
2018-01-22T00:30:19.626Z,94045.88
2018-01-22T00:32:47.698Z,94048.09
2018-01-22T00:35:15.512Z,94033.84
2018-01-22T00:37:43.479Z,94039.41
2018-01-22T00:40:11.653Z,94038.56
2018-01-22T00:42:39.538Z,94042.73
2018-01-22T00:45:09.838Z,94044.50
2018-01-22T00:47:37.870Z,94043.66
2018-01-22T00:50:06.338Z,94042.66
2018-01-22T00:52:34.205Z,94036.84
2018-01-22T00:55:02.293Z,94034.59
2018-01-22T00:57:30.362Z,94036.58
2018-01-22T00:59:59.202Z,94040.33
2018-01-22T01:02:28.011Z,94051.09
2018-01-22T01:04:55.807Z,94045.40
2018-01-22T01:07:23.898Z,94046.80
2018-01-22T01:09:51.801Z,94052.01
2018-01-22T01:12:19.613Z,94054.24
2018-01-22T01:14:47.431Z,94045.16
2018-01-22T01:17:19.206Z,94054.29
2018-01-22T01:19:49.767Z,94043.34
2018-01-22T01:22:24.394Z,94039.30
2018-01-22T01:24:55.750Z,94035.30
2018-01-22T01:27:32.945Z,94034.33
2018-01-22T01:30:01.683Z,94030.72
2018-01-22T01:32:30.774Z,94030.12
2018-01-22T01:35:03.720Z,94031.34
2018-01-22T01:38:14.800Z,94032.63
2018-01-22T01:40:51.448Z,94018.95
2018-01-22T01:43:29.308Z,94035.62
2018-01-22T01:46:11.297Z,94027.48
2018-01-22T03:58:02.142Z,93993.80
2018-01-22T04:03:25.913Z,93982.57
2018-01-22T04:06:11.527Z,93984.27
2018-01-22T04:12:24.851Z,93970.97
2018-01-22T04:15:05.848Z,93969.76
2018-01-22T04:17:35.960Z,93970.56
2018-01-22T04:20:08.253Z,93970.44
2018-01-22T04:23:20.496Z,93963.35
2018-01-22T04:25:55.912Z,93966.55
2018-01-22T04:28:39.202Z,93967.33
2018-01-22T04:31:16.291Z,93965.15
2018-01-22T04:36:47.773Z,93967.83
2018-01-22T04:39:33.334Z,93969.48
2018-01-22T04:42:04.495Z,93974.03
2018-01-22T04:44:49.851Z,93962.02
2018-01-22T04:47:36.223Z,93960.85
2018-01-22T04:50:27.443Z,93959.13
2018-01-22T04:53:15.820Z,93964.73
2018-01-22T04:55:45.326Z,93956.92
2018-01-22T04:58:19.727Z,93953.24
2018-01-22T05:00:49.027Z,93955.07
2018-01-22T05:03:19.793Z,93948.97
2018-01-22T05:05:52.814Z,93941.49
2018-01-22T05:08:24.578Z,93950.09
2018-01-22T05:10:57.224Z,93934.58
2018-01-22T05:13:27.896Z,93933.66
2018-01-22T05:15:58.305Z,93927.69
2018-01-22T05:18:28.328Z,93922.92
2018-01-22T05:21:01.540Z,93921.88
2018-01-22T05:23:32.748Z,93924.17
2018-01-22T05:26:02.571Z,93918.34
2018-01-22T05:28:35.366Z,93918.63
2018-01-22T05:31:04.349Z,93919.09
2018-01-22T05:33:32.041Z,93914.54
2018-01-22T05:36:00.787Z,93920.90
2018-01-22T05:38:29.194Z,93924.73
2018-01-22T05:41:02.068Z,93925.86
2018-01-22T05:43:30.542Z,93924.17
2018-01-22T05:45:58.260Z,93916.21
2018-01-22T05:48:28.026Z,93918.10
2018-01-22T05:50:56.892Z,93914.57
2018-01-22T05:53:24.619Z,93909.70
2018-01-22T05:55:52.464Z,93918.05
2018-01-22T05:58:20.227Z,93912.15
2018-01-22T06:00:48.864Z,93902.13
2018-01-22T06:03:17.778Z,93895.42
2018-01-22T06:05:45.519Z,93905.15
2018-01-22T06:08:13.264Z,93911.00
2018-01-22T06:10:41.098Z,93908.34
2018-01-22T06:13:09.632Z,93904.00
2018-01-22T06:15:40.958Z,93903.38
2018-01-22T06:18:08.762Z,93900.55
2018-01-22T06:20:36.549Z,93892.02
2018-01-22T06:23:04.235Z,93898.84
2018-01-22T06:25:32.055Z,93898.67
2018-01-22T06:27:59.743Z,93892.87
2018-01-22T06:30:27.491Z,93905.16
2018-01-22T06:32:55.233Z,93900.39
2018-01-22T06:35:22.958Z,93897.59
2018-01-22T06:37:50.774Z,93899.55
2018-01-22T06:40:19.177Z,93896.58
2018-01-22T06:42:47.010Z,93889.80
2018-01-22T06:45:14.759Z,93896.77
2018-01-22T06:47:42.427Z,93889.38
2018-01-22T06:50:10.143Z,93892.75
2018-01-22T06:52:37.899Z,93892.28
2018-01-22T06:55:05.651Z,93888.65
2018-01-22T06:57:34.227Z,93890.36
2018-01-22T07:00:01.947Z,93892.03
2018-01-22T07:02:29.617Z,93889.27
2018-01-22T07:04:58.622Z,93876.34
2018-01-22T07:07:26.315Z,93879.20
2018-01-22T07:09:54.096Z,93869.36
2018-01-22T07:12:22.604Z,93872.48
2018-01-22T07:14:50.339Z,93869.68
2018-01-22T07:17:18.186Z,93866.27
2018-01-22T07:19:46.830Z,93871.54
2018-01-22T07:22:14.626Z,93880.22
2018-01-22T07:24:42.313Z,93884.77
2018-01-22T07:27:10.019Z,93883.63
2018-01-22T07:29:39.066Z,93875.50
2018-01-22T07:32:06.870Z,93876.27
2018-01-22T07:34:34.649Z,93867.14
2018-01-22T07:37:02.400Z,93868.34
2018-01-22T07:39:30.403Z,93870.19
2018-01-22T07:41:58.204Z,93860.48
2018-01-22T07:44:27.122Z,93859.61
2018-01-22T07:46:54.817Z,93859.82
2018-01-22T07:49:22.612Z,93858.33
2018-01-22T07:51:51.301Z,93848.90
2018-01-22T07:54:19.033Z,93856.69
2018-01-22T07:56:46.771Z,93849.00
2018-01-22T07:59:14.536Z,93841.19
2018-01-22T08:01:42.251Z,93852.52
2018-01-22T08:04:10.051Z,93841.02
2018-01-22T08:06:37.765Z,93842.86
2018-01-22T08:09:06.157Z,93847.58
2018-01-22T08:11:33.916Z,93842.44
2018-01-22T08:14:01.626Z,93843.91
2018-01-22T08:16:30.889Z,93836.56
2018-01-22T08:18:58.594Z,93838.14
2018-01-22T08:21:26.370Z,93830.58
2018-01-22T08:23:54.066Z,93826.15
2018-01-22T08:26:21.766Z,93828.30
2018-01-22T08:28:49.548Z,93829.28
2018-01-22T08:31:17.364Z,93827.98
2018-01-22T08:33:45.145Z,93825.46
2018-01-22T08:36:12.916Z,93825.19
2018-01-22T08:38:40.828Z,93834.03
2018-01-22T08:41:08.543Z,93834.20
2018-01-22T08:43:36.915Z,93826.03
2018-01-22T08:46:05.475Z,93826.64
2018-01-22T08:48:33.242Z,93823.14
2018-01-22T08:51:01.005Z,93825.91
2018-01-22T08:53:28.774Z,93826.47
2018-01-22T08:55:56.539Z,93824.64
2018-01-22T08:58:24.281Z,93823.42
2018-01-22T09:00:52.093Z,93825.24
2018-01-22T09:03:19.817Z,93817.08
2018-01-22T09:05:47.503Z,93815.55
2018-01-22T09:08:15.307Z,93819.70
2018-01-22T09:10:43.045Z,93818.95
2018-01-22T09:13:10.870Z,93820.73
2018-01-22T09:15:38.644Z,93821.75
2018-01-22T09:18:07.183Z,93813.16
2018-01-22T09:20:34.950Z,93828.19
2018-01-22T09:23:02.672Z,93822.92
2018-01-22T09:25:30.422Z,93822.67
2018-01-22T09:27:58.165Z,93819.68
2018-01-22T09:30:25.985Z,93816.52
2018-01-22T09:32:53.719Z,93818.72
2018-01-22T09:35:21.514Z,93812.61
2018-01-22T09:37:49.265Z,93805.98
2018-01-22T09:40:16.966Z,93803.23
2018-01-22T09:42:44.703Z,93811.58
2018-01-22T09:45:12.382Z,93804.70
2018-01-22T09:47:40.951Z,93805.23
2018-01-22T09:50:08.821Z,93801.56
2018-01-22T09:52:36.826Z,93806.53
2018-01-22T09:55:04.618Z,93803.36
2018-01-22T09:57:32.416Z,93790.14
2018-01-22T10:00:00.306Z,93786.13
2018-01-22T10:02:28.004Z,93784.80
2018-01-22T10:04:55.819Z,93783.45
2018-01-22T10:07:23.553Z,93787.75
2018-01-22T10:09:51.901Z,93778.81
2018-01-22T10:12:19.648Z,93786.81
2018-01-22T10:14:47.397Z,93780.52
2018-01-22T10:17:15.126Z,93773.17
2018-01-22T10:19:42.818Z,93773.13
2018-01-22T10:22:10.556Z,93769.55
2018-01-22T10:24:38.405Z,93770.91
2018-01-22T10:27:06.122Z,93778.11
2018-01-22T10:29:33.882Z,93766.37
2018-01-22T10:32:01.562Z,93768.51
2018-01-22T10:34:29.291Z,93768.92
2018-01-22T10:36:56.968Z,93764.86
2018-01-22T10:39:24.733Z,93766.29
2018-01-22T10:41:52.451Z,93771.23
2018-01-22T10:44:20.255Z,93764.13
2018-01-22T10:46:47.948Z,93759.37
2018-01-22T10:49:15.727Z,93757.86
2018-01-22T10:51:43.424Z,93755.47
2018-01-22T10:54:12.032Z,93749.23
2018-01-22T10:56:39.728Z,93744.77
2018-01-22T10:59:07.419Z,93742.50
2018-01-22T11:01:35.154Z,93739.23
2018-01-22T11:04:02.930Z,93730.38
2018-01-22T11:06:30.667Z,93729.53
2018-01-22T11:08:58.391Z,93722.88
2018-01-22T11:11:27.318Z,93718.09
2018-01-22T11:13:55.080Z,93715.03
2018-01-22T11:16:22.834Z,93712.64
2018-01-22T11:18:50.538Z,93706.73
2018-01-22T11:21:18.267Z,93707.22
2018-01-22T11:23:45.964Z,93702.71
2018-01-22T11:26:13.702Z,93695.80
2018-01-22T11:28:41.499Z,93694.95
2018-01-22T11:31:09.291Z,93690.16
2018-01-22T11:33:36.987Z,93691.91
2018-01-22T11:36:04.726Z,93685.20
2018-01-22T11:38:32.467Z,93684.56
2018-01-22T11:41:00.191Z,93682.45
2018-01-22T11:43:27.968Z,93682.18
2018-01-22T11:45:55.720Z,93678.20
2018-01-22T11:48:23.474Z,93671.11
2018-01-22T11:50:51.550Z,93673.30
2018-01-22T11:53:19.256Z,93681.47
2018-01-22T11:55:47.000Z,93667.52
2018-01-22T11:58:14.854Z,93663.50
2018-01-22T12:00:42.911Z,93665.25
2018-01-22T12:03:10.718Z,93666.13
2018-01-22T12:05:38.462Z,93659.16
2018-01-22T12:08:06.408Z,93664.59
2018-01-22T12:10:34.187Z,93652.96
2018-01-22T12:13:01.980Z,93654.41
2018-01-22T12:15:29.702Z,93649.45
2018-01-22T12:17:57.458Z,93650.02
2018-01-22T12:20:26.361Z,93643.73
2018-01-22T12:22:54.266Z,93631.38
2018-01-22T12:25:22.004Z,93635.68
2018-01-22T12:27:49.729Z,93623.30
2018-01-22T12:30:17.527Z,93625.33
2018-01-22T12:32:45.253Z,93640.50
2018-01-22T12:35:13.010Z,93632.45
2018-01-22T12:37:40.784Z,93639.42
2018-01-22T12:40:08.509Z,93632.20
2018-01-22T12:42:36.279Z,93632.05
2018-01-22T12:45:04.003Z,93634.78
2018-01-22T12:47:31.779Z,93628.86
2018-01-22T12:49:59.570Z,93627.25
2018-01-22T12:52:27.327Z,93622.50
2018-01-22T12:54:55.064Z,93622.97
2018-01-22T12:57:22.902Z,93624.07
2018-01-22T12:59:50.681Z,93621.98
2018-01-22T13:02:18.412Z,93617.77
2018-01-22T13:04:46.178Z,93608.45
2018-01-22T13:07:13.962Z,93607.27
2018-01-22T13:09:41.695Z,93609.67
2018-01-22T13:12:09.393Z,93595.96
2018-01-22T13:14:37.140Z,93597.00
2018-01-22T13:17:04.884Z,93589.11
2018-01-22T13:19:32.778Z,93577.83
2018-01-22T13:22:00.500Z,93572.42
2018-01-22T13:24:28.211Z,93566.36
2018-01-22T13:26:55.992Z,93562.98
2018-01-22T13:29:23.769Z,93567.01
2018-01-22T13:31:51.493Z,93569.22
2018-01-22T13:34:19.277Z,93562.06
2018-01-22T13:36:46.976Z,93572.72
2018-01-22T13:39:14.740Z,93568.52
2018-01-22T13:41:42.490Z,93579.59
2018-01-22T13:44:10.232Z,93579.52
2018-01-22T13:46:37.979Z,93579.27
2018-01-22T13:49:05.813Z,93580.54
2018-01-22T13:51:33.643Z,93575.94
2018-01-22T13:54:01.341Z,93567.20
2018-01-22T13:56:29.128Z,93563.84
2018-01-22T13:58:56.891Z,93582.94
2018-01-22T14:01:24.603Z,93579.09
2018-01-22T14:03:52.503Z,93573.11
2018-01-22T14:06:20.236Z,93576.77
2018-01-22T14:08:48.009Z,93576.44
2018-01-22T14:11:15.766Z,93565.66
2018-01-22T14:13:43.708Z,93564.23
2018-01-22T14:16:11.454Z,93544.92
2018-01-22T14:18:39.261Z,93553.28
2018-01-22T14:21:07.039Z,93557.13
2018-01-22T14:23:34.825Z,93553.36
2018-01-22T14:26:02.630Z,93546.75
2018-01-22T14:28:30.432Z,93560.63
2018-01-22T14:30:58.293Z,93543.75
2018-01-22T14:33:26.045Z,93544.95
2018-01-22T14:35:53.749Z,93554.53
2018-01-22T14:38:21.574Z,93542.20
2018-01-22T14:40:49.271Z,93543.98
2018-01-22T14:43:17.155Z,93540.92
2018-01-22T14:45:44.867Z,93531.03
2018-01-22T14:48:12.677Z,93532.16
2018-01-22T14:50:40.515Z,93531.55
2018-01-22T14:53:09.445Z,93510.84
2018-01-22T14:55:37.240Z,93504.19
2018-01-22T14:58:04.977Z,93518.66
2018-01-22T15:00:32.723Z,93524.02
2018-01-22T15:03:00.567Z,93516.58
2018-01-22T15:05:28.351Z,93512.27
2018-01-22T15:07:56.169Z,93511.28
2018-01-22T15:10:23.928Z,93508.27
2018-01-22T15:12:51.656Z,93512.41
2018-01-22T15:15:19.626Z,93511.78
2018-01-22T15:17:48.432Z,93521.64
2018-01-22T15:20:16.316Z,93503.91
2018-01-22T15:22:44.149Z,93500.21
2018-01-22T15:25:11.910Z,93509.73
2018-01-22T15:27:39.928Z,93495.84
2018-01-22T15:30:08.020Z,93495.81
2018-01-22T15:32:35.962Z,93503.50
2018-01-22T15:35:04.278Z,93494.14
2018-01-22T15:37:32.322Z,93493.77
2018-01-22T15:40:00.511Z,93485.08
2018-01-22T15:42:29.410Z,93487.78
2018-01-22T15:44:57.285Z,93481.83
2018-01-22T15:47:26.165Z,93484.46
2018-01-22T15:49:54.129Z,93476.55
2018-01-22T15:52:22.123Z,93482.95
2018-01-22T15:54:50.114Z,93475.68
2018-01-22T15:57:18.204Z,93479.19
2018-01-22T15:59:46.157Z,93487.88
2018-01-22T16:02:14.063Z,93490.88
2018-01-22T16:04:42.256Z,93477.88
2018-01-22T16:07:10.325Z,93494.18
2018-01-22T16:09:38.615Z,93484.92
2018-01-22T16:12:06.739Z,93486.46
2018-01-22T16:14:34.601Z,93486.09
2018-01-22T16:17:02.768Z,93485.66
2018-01-22T16:19:30.634Z,93488.40
2018-01-22T16:21:58.769Z,93487.69
2018-01-22T16:24:26.626Z,93487.89
2018-01-22T16:26:54.484Z,93496.47
2018-01-22T16:29:26.072Z,93504.68
2018-01-22T16:31:54.005Z,93502.85
2018-01-22T16:34:21.798Z,93504.59
2018-01-22T16:36:49.606Z,93507.23
2018-01-22T16:39:17.457Z,93511.13
2018-01-22T16:41:45.698Z,93518.56
2018-01-22T16:44:13.966Z,93528.57
2018-01-22T16:46:42.117Z,93519.33
2018-01-22T16:49:10.006Z,93530.63
2018-01-22T16:51:37.916Z,93528.55
2018-01-22T16:54:05.757Z,93526.17
2018-01-22T16:56:33.559Z,93537.83
2018-01-22T16:59:01.574Z,93528.95
2018-01-22T17:01:31.545Z,93547.39
2018-01-22T17:03:59.447Z,93561.41
2018-01-22T17:06:27.292Z,93554.72
2018-01-22T17:08:56.332Z,93543.90
2018-01-22T17:11:24.194Z,93562.63
2018-01-22T17:13:52.021Z,93561.91
2018-01-22T17:16:19.782Z,93559.75
2018-01-22T17:18:47.696Z,93559.64
2018-01-22T17:21:16.496Z,93563.08
2018-01-22T17:23:44.876Z,93569.14
2018-01-22T17:26:13.014Z,93564.45
2018-01-22T17:28:41.611Z,93564.11
2018-01-22T17:31:09.698Z,93576.22
2018-01-22T17:33:37.638Z,93574.95
2018-01-22T17:36:05.581Z,93576.66
2018-01-22T17:38:33.477Z,93567.95
2018-01-22T17:41:01.343Z,93556.23
2018-01-22T17:43:29.154Z,93559.26
2018-01-22T17:45:57.151Z,93575.94
2018-01-22T17:48:25.284Z,93571.21
2018-01-22T17:50:53.111Z,93560.13
2018-01-22T17:53:21.938Z,93573.22
2018-01-22T17:55:49.944Z,93583.18
2018-01-22T17:58:17.750Z,93584.84
2018-01-22T18:00:45.500Z,93592.59
2018-01-22T18:03:13.691Z,93589.16
2018-01-22T18:05:41.865Z,93592.64
2018-01-22T18:08:09.784Z,93592.80
2018-01-22T18:10:38.852Z,93590.64
2018-01-22T18:13:09.022Z,93591.35
2018-01-22T18:15:37.048Z,93596.23
2018-01-22T18:18:05.550Z,93602.14
2018-01-22T18:20:33.534Z,93597.84
2018-01-22T18:23:02.761Z,93599.45
2018-01-22T18:25:30.769Z,93608.27
2018-01-22T18:27:58.875Z,93615.04
2018-01-22T18:30:26.881Z,93610.10
2018-01-22T18:32:55.408Z,93601.23
2018-01-22T18:35:23.184Z,93597.29
2018-01-22T18:37:51.075Z,93608.13
2018-01-22T18:40:18.849Z,93605.94
2018-01-22T18:42:46.615Z,93613.07
2018-01-22T18:45:14.348Z,93617.20
2018-01-22T18:47:42.118Z,93621.45
2018-01-22T18:50:09.924Z,93624.78
2018-01-22T18:52:37.770Z,93631.47
2018-01-22T18:55:05.603Z,93633.83
2018-01-22T18:57:33.351Z,93633.50
2018-01-22T19:00:01.139Z,93635.50
2018-01-22T19:02:28.878Z,93638.13
2018-01-22T19:04:56.649Z,93639.41
2018-01-22T19:07:24.586Z,93646.95
2018-01-22T19:09:52.481Z,93636.58
2018-01-22T19:12:20.242Z,93639.02
2018-01-22T19:14:48.035Z,93640.20
2018-01-22T19:17:15.799Z,93641.53
2018-01-22T19:19:43.943Z,93649.81
2018-01-22T19:22:12.208Z,93643.77
2018-01-22T19:24:40.707Z,93655.02
2018-01-22T19:27:08.784Z,93655.28
2018-01-22T19:29:36.482Z,93656.79
2018-01-22T19:32:04.305Z,93659.34
2018-01-22T19:34:33.370Z,93665.63
2018-01-22T19:37:01.186Z,93665.38
2018-01-22T19:39:29.404Z,93667.94
2018-01-22T19:41:57.615Z,93663.48
2018-01-22T19:44:26.675Z,93668.42
2018-01-22T19:46:54.504Z,93672.41
2018-01-22T19:49:22.673Z,93670.81
2018-01-22T19:51:50.721Z,93678.70
2018-01-22T19:54:19.617Z,93682.23
2018-01-22T19:56:47.772Z,93684.31
2018-01-22T19:59:15.851Z,93685.27
2018-01-22T20:01:43.828Z,93686.03
2018-01-22T20:04:12.730Z,93685.71
2018-01-22T20:06:40.799Z,93696.89
2018-01-22T20:09:08.680Z,93700.95
2018-01-22T20:11:37.152Z,93705.92
2018-01-22T20:14:05.418Z,93700.11
2018-01-22T20:16:33.797Z,93706.98
2018-01-22T20:19:01.992Z,93706.78
2018-01-22T20:21:29.907Z,93706.33
2018-01-22T20:23:58.881Z,93703.36
2018-01-22T20:26:27.814Z,93709.98
2018-01-22T20:28:55.659Z,93698.91
2018-01-22T20:31:24.263Z,93699.13
2018-01-22T20:33:52.180Z,93701.05
2018-01-22T20:36:21.145Z,93703.19
2018-01-22T20:38:49.210Z,93699.59
2018-01-22T20:41:17.214Z,93704.17
2018-01-22T20:43:45.384Z,93700.41
2018-01-22T20:46:13.425Z,93695.32
2018-01-22T20:48:41.654Z,93704.08
2018-01-22T20:51:10.384Z,93706.64
2018-01-22T20:53:38.738Z,93701.92
2018-01-22T20:56:06.799Z,93709.09
2018-01-22T20:58:35.016Z,93702.50
2018-01-22T21:01:03.083Z,93716.56
2018-01-22T21:03:31.353Z,93712.05
2018-01-22T21:06:00.248Z,93724.05
2018-01-22T21:08:29.059Z,93716.20
2018-01-22T21:10:56.876Z,93715.00
2018-01-22T21:13:24.777Z,93711.96
2018-01-22T21:15:52.711Z,93714.59
2018-01-22T21:18:20.485Z,93711.52
2018-01-22T21:20:48.208Z,93716.47
2018-01-22T21:23:16.016Z,93718.94
2018-01-22T21:25:43.903Z,93721.88
2018-01-22T21:28:11.683Z,93730.58
2018-01-22T21:30:39.613Z,93733.78
2018-01-22T21:33:07.343Z,93735.70
2018-01-22T21:35:35.124Z,93746.68
2018-01-22T21:38:03.359Z,93753.02
2018-01-22T21:40:31.100Z,93751.27
2018-01-22T21:42:59.084Z,93753.38
2018-01-22T21:45:26.837Z,93754.61
2018-01-22T21:47:54.634Z,93757.00
2018-01-22T21:50:22.358Z,93757.61
2018-01-22T21:52:50.220Z,93762.17
2018-01-22T21:55:17.950Z,93761.63
2018-01-22T21:57:45.691Z,93758.96
2018-01-22T22:00:13.528Z,93760.20
2018-01-22T22:02:41.389Z,93753.94
2018-01-22T22:05:09.188Z,93758.42
2018-01-22T22:07:37.118Z,93755.48
2018-01-22T22:10:04.985Z,93758.11
2018-01-22T22:12:32.868Z,93763.52
2018-01-22T22:15:00.666Z,93764.10
2018-01-22T22:17:28.451Z,93759.30
2018-01-22T22:19:56.231Z,93768.45
2018-01-22T22:22:23.924Z,93771.50
2018-01-22T22:24:51.715Z,93774.64
2018-01-22T22:27:19.482Z,93770.45
2018-01-22T22:29:47.287Z,93780.06
2018-01-22T22:32:15.070Z,93780.53
2018-01-22T22:34:42.808Z,93780.34
2018-01-22T22:37:10.593Z,93782.67
2018-01-22T22:39:38.310Z,93792.33
2018-01-22T22:42:06.060Z,93784.30
2018-01-22T22:44:33.816Z,93795.16
2018-01-22T22:47:01.506Z,93803.54
2018-01-22T22:49:29.260Z,93812.80
2018-01-22T22:51:56.951Z,93808.22
2018-01-22T22:54:24.779Z,93816.92
2018-01-22T22:56:52.474Z,93835.64
2018-01-22T22:59:20.398Z,93824.78
2018-01-22T23:01:48.870Z,93832.86
2018-01-22T23:04:16.909Z,93843.24
2018-01-22T23:06:45.000Z,93843.95
2018-01-22T23:09:13.099Z,93844.50
2018-01-22T23:11:41.166Z,93863.20
2018-01-22T23:14:09.241Z,93867.98
2018-01-22T23:16:40.287Z,93878.61
2018-01-22T23:19:08.413Z,93881.47
2018-01-22T23:21:36.529Z,93879.13
2018-01-22T23:24:04.671Z,93879.91
2018-01-22T23:26:32.662Z,93894.27
2018-01-22T23:29:01.502Z,93901.31
2018-01-22T23:31:29.748Z,93897.08
2018-01-22T23:33:57.886Z,93900.92
2018-01-22T23:36:25.985Z,93902.20
2018-01-22T23:38:53.992Z,93915.37
2018-01-22T23:41:22.124Z,93924.16
2018-01-22T23:43:50.195Z,93923.83
2018-01-22T23:46:19.293Z,93917.86
2018-01-22T23:48:47.216Z,93924.89
2018-01-22T23:51:15.207Z,93932.23
2018-01-22T23:53:43.103Z,93937.43
2018-01-22T23:56:11.981Z,93951.64
2018-01-22T23:58:40.856Z,93952.77
